Time;durP1;ratioP1;P1;durP2;ratioP2;P2;SDS_P1;SDS_P2;PMS_P1;PMS_P2;Temp;Humidity;BMP_temperature;BMP_pressure;BME280_temperature;BME280_humidity;BME280_pressure;Samples;Min_cycle;Max_cycle;Signal;HPM_P1;HPM_P2
2022/07/27 00:02:22;;;;;;;4.32;1.75;;;16.70;59.90;;;;;;5043889;28;20025;-54
2022/07/27 00:04:48;;;;;;;6.43;2.35;;;16.70;61.10;;;;;;5049802;28;20029;-52
2022/07/27 00:07:14;;;;;;;7.53;2.17;;;16.70;59.60;;;;;;5038027;28;20033;-57
2022/07/27 00:09:39;;;;;;;5.75;2.40;;;16.70;60.70;;;;;;5040779;28;20396;-56
2022/07/27 00:12:05;;;;;;;7.03;2.28;;;16.60;60.10;;;;;;5038160;28;20025;-56
2022/07/27 00:14:31;;;;;;;7.63;2.42;;;16.60;60.40;;;;;;5052130;28;20028;-56
2022/07/27 00:16:57;;;;;;;6.25;2.67;;;16.50;61.30;;;;;;5040173;28;20083;-53
2022/07/27 00:19:23;;;;;;;6.38;2.47;;;16.50;60.60;;;;;;5039523;28;20032;-56
2022/07/27 00:21:49;;;;;;;4.75;2.20;;;16.40;61.00;;;;;;5021407;28;20022;-52
2022/07/27 00:24:15;;;;;;;5.53;2.20;;;16.40;60.30;;;;;;5036725;28;20029;-53
2022/07/27 00:26:41;;;;;;;5.78;2.75;;;16.40;61.60;;;;;;5057008;28;20032;-53
2022/07/27 00:29:07;;;;;;;7.13;2.40;;;16.40;61.40;;;;;;5045781;28;20032;-52
2022/07/27 00:31:33;;;;;;;6.72;2.70;;;16.40;60.70;;;;;;5054109;28;20033;-55
2022/07/27 00:33:59;;;;;;;3.88;2.08;;;16.30;62.10;;;;;;5055377;28;20025;-54
2022/07/27 00:36:25;;;;;;;3.95;1.98;;;16.30;62.10;;;;;;5053422;28;20480;-51
2022/07/27 00:38:51;;;;;;;7.57;2.25;;;16.20;62.50;;;;;;5054279;28;20017;-51
2022/07/27 00:41:17;;;;;;;4.75;2.25;;;16.20;62.20;;;;;;5040516;28;20021;-54
2022/07/27 00:43:54;;;;;;;5.68;2.45;;;16.20;62.30;;;;;;5057109;28;20112;-55
2022/07/27 00:46:21;;;;;;;8.25;2.60;;;16.20;61.50;;;;;;5060810;28;20033;-54
2022/07/27 00:48:47;;;;;;;7.10;2.17;;;16.10;61.80;;;;;;5042685;28;20021;-54
2022/07/27 00:51:15;;;;;;;6.63;2.25;;;16.10;62.40;;;;;;5060830;28;20025;-52
2022/07/27 00:53:41;;;;;;;4.43;2.28;;;16.00;63.00;;;;;;5045478;28;20021;-54
2022/07/27 00:56:07;;;;;;;5.43;2.05;;;16.00;63.00;;;;;;5041555;28;20087;-55
2022/07/27 00:58:34;;;;;;;7.32;2.60;;;16.00;63.50;;;;;;5040213;28;20026;-51
2022/07/27 01:01:00;;;;;;;5.85;2.50;;;16.00;63.20;;;;;;5042362;28;20108;-54
2022/07/27 01:03:26;;;;;;;4.97;2.10;;;15.90;63.10;;;;;;5041279;28;20072;-60
2022/07/27 01:05:52;;;;;;;3.35;2.10;;;15.90;63.40;;;;;;5046367;28;20053;-61
2022/07/27 01:08:18;;;;;;;6.47;2.47;;;16.00;63.10;;;;;;5020889;28;20029;-61
2022/07/27 01:10:44;;;;;;;6.18;2.20;;;15.90;62.10;;;;;;5026549;28;20048;-62
2022/07/27 01:13:10;;;;;;;10.70;2.60;;;15.90;62.70;;;;;;5041006;28;20037;-61
2022/07/27 01:15:37;;;;;;;6.57;2.42;;;15.90;63.40;;;;;;5029127;28;20058;-62
2022/07/27 01:18:09;;;;;;;6.03;2.40;;;15.80;63.40;;;;;;5060064;28;20021;-61
2022/07/27 01:20:36;;;;;;;7.45;2.35;;;15.80;63.70;;;;;;5059577;28;20029;-61
2022/07/27 01:23:02;;;;;;;5.53;2.17;;;15.80;63.20;;;;;;5058931;28;20040;-61
2022/07/27 01:25:27;;;;;;;8.60;2.63;;;15.80;63.60;;;;;;5051491;28;20204;-61
2022/07/27 01:27:53;;;;;;;8.07;2.40;;;15.70;64.20;;;;;;5050899;28;20021;-61
2022/07/27 01:30:31;;;;;;;4.50;2.20;;;15.70;64.10;;;;;;5059808;28;20036;-61
2022/07/27 01:33:04;;;;;;;6.43;2.55;;;15.70;62.90;;;;;;5060013;28;20024;-61
2022/07/27 01:35:30;;;;;;;7.82;2.88;;;15.60;63.70;;;;;;5058226;28;20029;-61
2022/07/27 01:37:55;;;;;;;5.50;2.50;;;15.70;63.10;;;;;;5055063;28;20036;-61
2022/07/27 01:40:22;;;;;;;4.97;2.28;;;15.70;63.60;;;;;;5040444;28;20025;-61
2022/07/27 01:42:47;;;;;;;6.22;2.20;;;15.60;63.90;;;;;;5038342;28;20026;-61
2022/07/27 01:45:13;;;;;;;5.90;2.45;;;15.50;63.90;;;;;;5047557;28;20027;-61
2022/07/27 01:47:39;;;;;;;6.57;2.38;;;15.50;64.60;;;;;;5040880;28;20029;-61
2022/07/27 01:50:05;;;;;;;4.50;2.45;;;15.50;65.00;;;;;;5038350;28;20036;-61
2022/07/27 01:52:31;;;;;;;7.60;2.70;;;15.50;64.10;;;;;;5039213;28;20049;-61
2022/07/27 01:54:57;;;;;;;6.30;2.33;;;15.50;63.20;;;;;;5039309;28;20033;-61
2022/07/27 01:57:23;;;;;;;6.00;2.58;;;15.50;65.20;;;;;;5039135;28;20583;-61
2022/07/27 01:59:49;;;;;;;6.15;2.50;;;15.40;64.50;;;;;;5039282;28;20034;-61
2022/07/27 02:02:15;;;;;;;7.88;2.72;;;15.50;64.50;;;;;;5054534;28;20492;-61
2022/07/27 02:04:44;;;;;;;6.15;2.60;;;15.40;65.00;;;;;;5021469;28;20032;-61
2022/07/27 02:07:10;;;;;;;5.63;2.50;;;15.40;64.90;;;;;;5039910;28;20028;-61
2022/07/27 02:09:36;;;;;;;5.22;2.45;;;15.40;63.90;;;;;;5049848;28;20021;-61
2022/07/27 02:14:46;;;;;;;;;;;15.30;65.40;;;;;;5050851;28;20044;-61
2022/07/27 02:17:12;;;;;;;4.53;2.33;;;15.30;65.10;;;;;;5041661;28;19905;-61
2022/07/27 02:19:38;;;;;;;9.23;3.05;;;15.30;64.60;;;;;;5058184;28;20044;-61
2022/07/27 02:22:04;;;;;;;6.18;2.45;;;15.30;64.30;;;;;;5039679;28;20481;-61
2022/07/27 02:24:30;;;;;;;7.57;2.45;;;15.30;65.80;;;;;;5038809;28;20056;-61
2022/07/27 02:26:56;;;;;;;7.30;2.22;;;15.20;65.60;;;;;;5021381;28;20029;-61
2022/07/27 02:29:22;;;;;;;5.15;2.28;;;15.20;66.10;;;;;;5039560;28;20113;-61
2022/07/27 02:31:47;;;;;;;7.28;2.60;;;15.20;66.00;;;;;;5038661;28;20025;-61
2022/07/27 02:34:13;;;;;;;8.00;2.65;;;15.20;66.20;;;;;;5037262;28;20029;-60
2022/07/27 02:36:39;;;;;;;6.65;2.78;;;15.10;65.80;;;;;;5037391;28;20034;-61
2022/07/27 02:39:04;;;;;;;5.60;2.35;;;15.10;66.20;;;;;;5042754;28;20032;-61
2022/07/27 02:41:30;;;;;;;8.80;2.60;;;15.10;65.70;;;;;;5040834;28;20044;-61
2022/07/27 02:43:56;;;;;;;4.38;2.42;;;15.00;64.50;;;;;;5036393;28;20032;-61
2022/07/27 02:46:22;;;;;;;6.13;2.90;;;15.00;66.40;;;;;;5037150;28;20030;-61
2022/07/27 02:48:47;;;;;;;5.95;2.58;;;14.90;66.80;;;;;;5041217;28;20116;-61
2022/07/27 02:51:13;;;;;;;7.00;2.67;;;14.90;65.00;;;;;;5037362;28;20381;-61
2022/07/27 02:53:40;;;;;;;7.75;2.40;;;14.90;66.00;;;;;;5035298;28;20041;-61
2022/07/27 02:56:05;;;;;;;4.90;2.70;;;14.90;66.30;;;;;;5006544;28;20112;-61
2022/07/27 02:58:31;;;;;;;6.38;2.53;;;14.90;66.90;;;;;;5038372;28;20500;-61
2022/07/27 03:00:57;;;;;;;7.30;3.15;;;14.80;66.30;;;;;;5037969;28;20030;-60
2022/07/27 03:03:23;;;;;;;5.25;2.33;;;14.80;66.20;;;;;;5047521;28;20021;-61
2022/07/27 03:05:49;;;;;;;6.40;2.80;;;14.80;66.80;;;;;;5055753;28;20043;-61
2022/07/27 03:08:15;;;;;;;6.70;2.70;;;14.70;66.70;;;;;;5042129;28;20029;-61
2022/07/27 03:10:41;;;;;;;8.25;2.58;;;14.70;67.40;;;;;;5035609;28;20063;-61
2022/07/27 03:13:07;;;;;;;9.43;2.75;;;14.70;65.60;;;;;;5045072;28;20037;-60
2022/07/27 03:15:33;;;;;;;4.18;2.58;;;14.70;67.30;;;;;;5019855;28;20033;-60
2022/07/27 03:18:00;;;;;;;9.30;2.88;;;14.70;66.60;;;;;;5043661;28;20021;-61
2022/07/27 03:20:26;;;;;;;8.93;2.70;;;14.70;67.60;;;;;;5057120;28;20028;-61
2022/07/27 03:22:53;;;;;;;6.38;2.28;;;14.60;67.50;;;;;;5057962;28;20472;-61
2022/07/27 03:25:19;;;;;;;7.47;2.72;;;14.60;67.50;;;;;;5055307;28;20043;-61
2022/07/27 03:27:44;;;;;;;5.90;2.60;;;14.50;65.30;;;;;;5041263;28;20033;-61
2022/07/27 03:30:11;;;;;;;5.95;2.50;;;14.50;67.10;;;;;;5040627;28;20105;-61
2022/07/27 03:32:36;;;;;;;7.53;2.42;;;14.40;67.60;;;;;;5047150;28;20033;-61
2022/07/27 03:35:02;;;;;;;5.15;2.22;;;14.30;68.50;;;;;;5036891;28;20029;-61
2022/07/27 03:37:28;;;;;;;5.97;2.58;;;14.30;68.60;;;;;;5036452;28;20048;-60
2022/07/27 03:39:54;;;;;;;5.70;2.45;;;14.30;66.30;;;;;;5036368;28;20033;-61
2022/07/27 03:42:20;;;;;;;6.40;2.40;;;14.30;67.00;;;;;;5035381;28;20397;-61
2022/07/27 03:44:45;;;;;;;5.18;2.55;;;14.30;68.30;;;;;;5045408;28;20075;-60
2022/07/27 03:47:11;;;;;;;5.90;2.70;;;14.30;68.40;;;;;;5055908;28;20372;-60
2022/07/27 03:49:37;;;;;;;7.75;2.75;;;14.30;68.80;;;;;;5036241;28;20057;-60
2022/07/27 03:52:03;;;;;;;7.50;2.70;;;14.30;68.10;;;;;;5036357;28;20104;-60
2022/07/27 03:54:29;;;;;;;6.75;2.60;;;14.40;68.60;;;;;;5036423;28;20025;-61
2022/07/27 03:56:54;;;;;;;5.28;2.00;;;14.40;68.60;;;;;;5036455;28;20040;-61
2022/07/27 03:59:20;;;;;;;6.07;2.90;;;14.40;67.80;;;;;;5036620;28;20021;-61
2022/07/27 04:01:46;;;;;;;5.45;2.97;;;14.40;68.90;;;;;;5035717;28;20476;-61
2022/07/27 04:04:12;;;;;;;6.30;2.58;;;14.50;66.90;;;;;;5036475;28;20025;-60
2022/07/27 04:06:38;;;;;;;5.13;2.60;;;14.50;69.10;;;;;;5037935;28;20140;-61
2022/07/27 04:09:04;;;;;;;5.53;2.30;;;14.50;68.10;;;;;;5037932;28;20048;-61
2022/07/27 04:11:30;;;;;;;7.35;2.58;;;14.60;68.70;;;;;;5041290;28;20453;-61
2022/07/27 04:13:56;;;;;;;6.70;2.83;;;14.60;69.10;;;;;;5035072;28;20036;-61
2022/07/27 04:16:22;;;;;;;6.78;2.55;;;14.60;68.00;;;;;;5039193;28;20444;-61
2022/07/27 04:18:48;;;;;;;5.97;2.72;;;14.60;68.40;;;;;;5043090;28;20135;-61
2022/07/27 04:21:14;;;;;;;6.65;2.83;;;14.60;67.40;;;;;;5039703;28;20112;-61
2022/07/27 04:23:41;;;;;;;4.70;2.40;;;14.60;69.00;;;;;;5019656;28;20018;-60
2022/07/27 04:26:07;;;;;;;7.13;2.60;;;14.60;68.50;;;;;;5057244;28;20602;-61
2022/07/27 04:28:32;;;;;;;5.22;2.70;;;14.60;67.50;;;;;;5055497;28;20025;-60
2022/07/27 04:30:58;;;;;;;5.60;2.70;;;14.60;68.50;;;;;;5056561;28;20094;-61
2022/07/27 04:33:24;;;;;;;5.18;2.88;;;14.60;69.40;;;;;;5052382;28;20428;-60
2022/07/27 04:35:50;;;;;;;5.88;2.60;;;14.60;69.50;;;;;;5037682;28;20393;-60
2022/07/27 04:38:16;;;;;;;6.63;2.72;;;14.60;69.10;;;;;;5035565;28;20075;-61
2022/07/27 04:40:42;;;;;;;7.40;2.65;;;14.60;68.00;;;;;;5050657;28;20396;-61
2022/07/27 04:43:07;;;;;;;4.72;2.53;;;14.60;70.10;;;;;;5056517;28;20492;-61
2022/07/27 04:45:33;;;;;;;9.50;3.10;;;14.60;69.50;;;;;;5038590;28;20032;-61
2022/07/27 04:48:03;;;;;;;5.85;2.67;;;14.60;69.00;;;;;;5056826;28;20031;-61
2022/07/27 04:50:29;;;;;;;7.03;2.92;;;14.60;69.50;;;;;;5051434;28;20037;-60
2022/07/27 04:52:55;;;;;;;5.07;2.78;;;14.70;69.40;;;;;;5037237;28;20021;-60
2022/07/27 04:55:21;;;;;;;6.45;2.63;;;14.70;69.80;;;;;;5047472;28;20476;-61
2022/07/27 04:57:47;;;;;;;8.38;2.78;;;14.60;68.10;;;;;;5056300;28;20056;-60
2022/07/27 05:00:13;;;;;;;5.55;2.88;;;14.60;69.50;;;;;;5038308;28;20078;-61
2022/07/27 05:02:41;;;;;;;9.55;3.10;;;14.60;69.80;;;;;;5057085;28;20029;-61
2022/07/27 05:05:08;;;;;;;7.20;2.67;;;14.60;69.60;;;;;;5040023;28;20045;-60
2022/07/27 05:07:34;;;;;;;6.05;2.70;;;14.70;70.00;;;;;;5046503;28;20540;-61
2022/07/27 05:10:00;;;;;;;8.32;3.53;;;14.70;68.50;;;;;;5053815;28;20060;-61
2022/07/27 05:12:25;;;;;;;7.95;2.75;;;14.70;68.50;;;;;;5055479;28;20480;-61
2022/07/27 05:14:51;;;;;;;6.97;2.83;;;14.70;71.00;;;;;;5039900;28;20426;-61
2022/07/27 05:17:17;;;;;;;8.85;3.13;;;14.80;70.20;;;;;;5052717;28;20052;-61
2022/07/27 05:19:43;;;;;;;9.93;3.33;;;14.80;68.90;;;;;;5059560;28;20032;-61
2022/07/27 05:22:09;;;;;;;5.90;3.33;;;14.80;70.80;;;;;;5059696;28;20033;-60
2022/07/27 05:24:35;;;;;;;8.10;3.20;;;14.80;70.30;;;;;;5053346;28;20503;-61
2022/07/27 05:27:01;;;;;;;8.48;3.20;;;14.90;69.90;;;;;;5055745;28;20495;-61
2022/07/27 05:29:27;;;;;;;7.97;2.80;;;15.00;73.30;;;;;;5058128;28;20037;-61
2022/07/27 05:31:53;;;;;;;7.40;3.33;;;15.20;74.10;;;;;;5059528;28;20085;-60
2022/07/27 05:34:19;;;;;;;7.28;3.30;;;15.40;73.00;;;;;;5059383;28;20036;-60
2022/07/27 05:36:44;;;;;;;5.72;3.00;;;15.50;72.60;;;;;;5048772;28;20226;-61
2022/07/27 05:39:10;;;;;;;5.80;3.00;;;15.70;69.40;;;;;;5046656;28;20108;-61
2022/07/27 05:41:37;;;;;;;8.68;3.28;;;15.70;68.70;;;;;;5043132;28;20487;-61
2022/07/27 05:44:03;;;;;;;6.60;3.00;;;15.70;68.60;;;;;;5039229;28;20018;-61
2022/07/27 05:46:28;;;;;;;9.00;3.15;;;15.60;68.90;;;;;;5051662;28;20025;-60
2022/07/27 05:48:54;;;;;;;5.55;2.70;;;15.60;70.00;;;;;;5042902;28;20029;-60
2022/07/27 05:51:20;;;;;;;6.35;3.30;;;15.60;70.50;;;;;;5039115;28;20091;-61
2022/07/27 05:53:46;;;;;;;8.73;3.00;;;15.60;70.40;;;;;;5042521;28;20112;-61
2022/07/27 05:56:11;;;;;;;9.40;3.50;;;15.60;70.00;;;;;;5039474;28;20025;-60
2022/07/27 05:58:37;;;;;;;6.50;3.22;;;15.70;69.10;;;;;;5039948;28;20449;-61
2022/07/27 06:01:03;;;;;;;5.10;3.20;;;15.70;69.00;;;;;;5024521;28;20028;-61
2022/07/27 06:03:29;;;;;;;7.63;3.30;;;15.70;69.20;;;;;;5038931;28;20027;-61
2022/07/27 06:07:57;;;;;;;6.90;3.35;;;15.70;69.00;;;;;;5038582;28;20049;-61
2022/07/27 06:08:41;;;;;;;8.50;3.42;;;15.70;69.20;;;;;;5038699;28;20057;-61
2022/07/27 06:11:07;;;;;;;6.55;3.08;;;15.70;69.30;;;;;;5038670;28;20507;-61
2022/07/27 06:13:37;;;;;;;6.35;2.85;;;15.80;69.00;;;;;;5037722;28;20030;-61
2022/07/27 06:16:03;;;;;;;8.82;3.28;;;15.80;70.00;;;;;;5036844;28;20046;-61
2022/07/27 06:18:28;;;;;;;6.53;3.10;;;15.80;69.00;;;;;;5038947;28;20030;-61
2022/07/27 06:20:54;;;;;;;6.85;2.60;;;15.90;70.40;;;;;;5043891;28;20021;-61
2022/07/27 06:23:20;;;;;;;10.73;3.35;;;15.90;69.60;;;;;;5039886;28;20025;-61
2022/07/27 06:25:46;;;;;;;9.10;3.28;;;15.90;68.80;;;;;;5018750;28;20382;-61
2022/07/27 06:28:12;;;;;;;10.02;3.63;;;16.00;69.60;;;;;;5019261;28;20495;-61
2022/07/27 06:30:37;;;;;;;6.75;3.33;;;16.00;69.60;;;;;;5015311;28;20044;-61
2022/07/27 06:33:03;;;;;;;6.95;2.95;;;16.10;69.90;;;;;;5045906;28;20906;-60
2022/07/27 06:35:29;;;;;;;9.10;3.17;;;16.20;69.40;;;;;;5056035;28;20118;-61
2022/07/27 06:37:55;;;;;;;9.75;3.00;;;16.30;69.50;;;;;;5057465;28;20029;-61
2022/07/27 06:40:21;;;;;;;10.75;3.50;;;16.30;69.80;;;;;;5058659;28;20013;-61
2022/07/27 06:42:49;;;;;;;8.57;3.10;;;16.30;70.20;;;;;;5023390;28;20029;-61
2022/07/27 06:45:15;;;;;;;6.50;3.25;;;16.40;69.50;;;;;;5037044;28;20021;-61
2022/07/27 06:47:41;;;;;;;9.45;3.08;;;16.50;70.50;;;;;;5037869;28;20030;-61
2022/07/27 06:50:08;;;;;;;10.55;3.33;;;16.50;69.90;;;;;;5041472;28;20074;-61
2022/07/27 06:52:34;;;;;;;7.47;3.20;;;16.60;69.20;;;;;;5049690;28;20362;-61
2022/07/27 06:55:00;;;;;;;11.65;3.42;;;16.60;69.40;;;;;;5048401;28;20040;-61
2022/07/27 06:57:26;;;;;;;6.38;2.90;;;16.60;69.70;;;;;;5036537;28;20029;-61
2022/07/27 06:59:52;;;;;;;8.73;3.47;;;16.60;69.40;;;;;;5037412;28;20021;-60
2022/07/27 07:02:18;;;;;;;9.68;3.47;;;16.70;69.90;;;;;;5037054;28;20498;-61
2022/07/27 07:04:44;;;;;;;9.20;3.58;;;16.80;70.10;;;;;;5037268;28;20096;-61
2022/07/27 07:07:10;;;;;;;7.78;3.42;;;16.80;69.80;;;;;;5037416;28;20083;-61
2022/07/27 07:09:36;;;;;;;8.98;3.75;;;16.80;70.30;;;;;;5036533;28;20026;-61
2022/07/27 07:12:02;;;;;;;10.15;3.75;;;16.90;69.60;;;;;;5036627;28;20059;-61
2022/07/27 07:14:28;;;;;;;23.80;4.85;;;17.00;69.90;;;;;;5033831;28;20033;-61
2022/07/27 07:16:53;;;;;;;11.48;3.50;;;17.00;69.70;;;;;;5034638;28;20040;-61
2022/07/27 07:19:20;;;;;;;8.40;3.35;;;17.10;69.80;;;;;;5036174;28;20014;-61
2022/07/27 07:21:45;;;;;;;6.97;3.17;;;17.00;71.10;;;;;;5034964;28;20047;-61
2022/07/27 07:24:12;;;;;;;10.43;3.50;;;17.10;71.30;;;;;;5034276;28;20013;-61
2022/07/27 07:26:39;;;;;;;8.15;3.40;;;17.20;70.30;;;;;;5032742;28;20104;-61
2022/07/27 07:29:05;;;;;;;8.38;3.35;;;17.20;70.10;;;;;;5032489;28;20025;-61
2022/07/27 07:31:31;;;;;;;7.15;3.20;;;17.30;70.60;;;;;;5034249;28;20033;-62
2022/07/27 07:33:58;;;;;;;8.57;3.90;;;17.40;70.10;;;;;;5034980;28;20079;-62
2022/07/27 07:36:24;;;;;;;9.80;4.25;;;17.40;69.50;;;;;;5034581;28;20033;-61
2022/07/27 07:38:50;;;;;;;8.25;3.50;;;17.50;70.60;;;;;;5032439;28;20048;-61
2022/07/27 07:41:16;;;;;;;9.80;3.42;;;17.60;70.80;;;;;;5035838;28;20502;-61
2022/07/27 07:43:42;;;;;;;6.93;3.38;;;17.70;69.90;;;;;;5034642;28;20022;-61
2022/07/27 07:46:08;;;;;;;7.60;3.58;;;17.70;70.70;;;;;;5035424;28;20092;-61
2022/07/27 07:48:34;;;;;;;6.65;3.20;;;17.80;70.60;;;;;;5029232;28;20037;-61
2022/07/27 07:51:00;;;;;;;10.02;3.63;;;18.00;70.90;;;;;;5027686;28;20075;-62
2022/07/27 07:53:26;;;;;;;10.05;3.45;;;18.10;70.60;;;;;;5026834;28;20041;-62
2022/07/27 07:55:54;;;;;;;9.90;3.50;;;18.20;69.60;;;;;;5033570;28;20025;-61
2022/07/27 07:58:21;;;;;;;9.70;3.38;;;18.20;69.70;;;;;;5028549;28;20570;-61
2022/07/27 08:00:47;;;;;;;10.00;3.60;;;18.40;69.90;;;;;;5028986;28;20045;-62
2022/07/27 08:03:14;;;;;;;9.30;3.83;;;18.40;69.80;;;;;;5024729;28;20022;-60
2022/07/27 08:05:40;;;;;;;8.73;3.38;;;18.50;69.70;;;;;;5028376;28;20041;-61
2022/07/27 08:08:06;;;;;;;9.13;3.10;;;18.60;69.50;;;;;;5033708;28;20026;-62
2022/07/27 08:10:32;;;;;;;11.77;3.40;;;18.80;69.70;;;;;;5034370;28;20540;-60
2022/07/27 08:12:58;;;;;;;8.82;3.10;;;18.90;69.80;;;;;;5011709;28;20029;-61
2022/07/27 08:15:24;;;;;;;7.43;3.22;;;19.10;69.70;;;;;;5030251;28;20057;-61
2022/07/27 08:17:50;;;;;;;6.57;3.42;;;19.20;68.80;;;;;;5032442;28;20013;-62
2022/07/27 08:20:17;;;;;;;7.45;3.33;;;19.30;68.20;;;;;;5033542;28;20032;-61
2022/07/27 08:22:43;;;;;;;10.07;3.58;;;19.40;68.40;;;;;;5034414;28;20017;-58
2022/07/27 08:25:10;;;;;;;13.93;3.60;;;19.50;68.00;;;;;;5031559;28;20112;-59
2022/07/27 08:27:36;;;;;;;8.90;3.42;;;19.50;67.40;;;;;;5017256;28;20098;-62
2022/07/27 08:30:04;;;;;;;8.48;2.95;;;19.60;67.40;;;;;;5038957;28;20029;-57
2022/07/27 08:32:30;;;;;;;9.50;3.25;;;19.60;68.00;;;;;;5035946;28;20029;-57
2022/07/27 08:34:56;;;;;;;8.20;3.40;;;19.80;66.80;;;;;;5032229;28;20051;-55
2022/07/27 08:37:22;;;;;;;6.60;3.45;;;19.80;67.10;;;;;;5029667;28;20025;-60
2022/07/27 08:39:49;;;;;;;6.97;3.10;;;19.90;66.30;;;;;;5036628;28;20028;-58
2022/07/27 08:42:16;;;;;;;9.57;3.30;;;20.00;67.20;;;;;;5036067;28;20105;-59
2022/07/27 08:44:45;;;;;;;7.25;2.60;;;20.10;65.90;;;;;;5043534;28;20037;-57
2022/07/27 08:47:13;;;;;;;9.23;3.20;;;20.20;66.20;;;;;;5034749;28;20032;-56
2022/07/27 08:49:40;;;;;;;5.15;2.70;;;20.20;65.00;;;;;;5045329;28;20513;-57
2022/07/27 08:52:09;;;;;;;10.93;3.30;;;20.30;65.50;;;;;;5031197;28;20026;-56
2022/07/27 08:54:38;;;;;;;9.68;3.15;;;20.40;65.00;;;;;;5033608;28;20040;-58
2022/07/27 08:57:04;;;;;;;7.55;2.88;;;20.40;64.20;;;;;;5037854;28;20029;-56
2022/07/27 08:59:29;;;;;;;7.18;3.00;;;20.40;64.20;;;;;;5030262;28;20532;-55
2022/07/27 09:01:57;;;;;;;6.43;2.83;;;20.50;64.30;;;;;;5029748;28;20029;-57
2022/07/27 09:04:23;;;;;;;6.70;2.83;;;20.50;62.90;;;;;;5039980;28;20021;-56
2022/07/27 09:06:50;;;;;;;9.73;2.85;;;20.50;63.40;;;;;;5038099;28;20042;-54
2022/07/27 09:09:18;;;;;;;6.50;2.88;;;20.40;63.80;;;;;;5039052;28;20427;-52
2022/07/27 09:12:10;;;;;;;7.50;2.80;;;20.40;62.80;;;;;;5040011;28;20077;-56
2022/07/27 09:14:39;;;;;;;7.60;3.20;;;20.40;63.90;;;;;;5034589;28;20416;-56
2022/07/27 09:17:24;;;;;;;8.73;3.50;;;20.40;64.30;;;;;;5037213;28;20037;-56
2022/07/27 09:20:03;;;;;;;7.25;2.90;;;20.30;64.70;;;;;;5038313;28;20029;-56
2022/07/27 09:22:51;;;;;;;7.65;3.13;;;20.20;65.10;;;;;;5033643;28;20112;-56
2022/07/27 09:25:21;;;;;;;9.25;3.58;;;20.20;65.30;;;;;;5037269;28;20029;-56
2022/07/27 09:27:52;;;;;;;9.75;3.25;;;20.20;64.30;;;;;;5037948;28;20025;-56
2022/07/27 09:30:20;;;;;;;8.73;3.33;;;20.20;64.20;;;;;;5038494;28;20022;-55
2022/07/27 09:32:58;;;;;;;6.93;3.22;;;20.10;63.80;;;;;;5039660;28;20108;-56
2022/07/27 09:35:34;;;;;;;10.13;2.95;;;20.20;62.80;;;;;;5037735;28;20041;-58
2022/07/27 09:38:19;;;;;;;6.30;2.97;;;20.30;63.00;;;;;;5037523;28;20063;-54
2022/07/27 09:40:47;;;;;;;5.68;2.78;;;20.50;63.00;;;;;;5038497;28;20033;-56
2022/07/27 09:43:13;;;;;;;9.30;3.28;;;20.80;63.70;;;;;;5038770;28;20041;-57
2022/07/27 09:45:44;;;;;;;6.30;3.47;;;21.00;62.60;;;;;;5038156;28;20119;-57
2022/07/27 09:48:16;;;;;;;8.95;2.90;;;21.20;62.30;;;;;;5038351;28;20406;-55
2022/07/27 09:50:46;;;;;;;11.02;3.78;;;21.30;61.70;;;;;;5038944;28;20037;-56
2022/07/27 09:53:17;;;;;;;8.98;3.70;;;21.50;59.80;;;;;;5038119;28;20056;-56
2022/07/27 09:55:44;;;;;;;7.22;4.07;;;21.60;60.00;;;;;;5037365;28;20113;-57
2022/07/27 09:58:10;;;;;;;9.43;3.85;;;21.70;57.90;;;;;;5035056;28;21280;-54
2022/07/27 10:00:36;;;;;;;9.73;4.20;;;21.60;58.40;;;;;;5038955;28;20013;-55
2022/07/27 10:03:02;;;;;;;10.02;3.90;;;21.60;57.40;;;;;;5038571;28;20026;-54
2022/07/27 10:05:28;;;;;;;11.70;6.05;;;21.70;60.60;;;;;;5041192;28;20155;-55
2022/07/27 10:07:55;;;;;;;12.80;7.93;;;22.00;58.50;;;;;;5036468;28;20033;-58
2022/07/27 10:10:22;;;;;;;11.98;6.72;;;22.10;55.40;;;;;;5035226;28;20017;-57
2022/07/27 10:12:48;;;;;;;10.88;5.90;;;22.30;54.50;;;;;;5036851;28;22050;-56
2022/07/27 10:15:15;;;;;;;12.30;5.70;;;22.70;52.90;;;;;;5037684;28;20045;-57
2022/07/27 10:17:43;;;;;;;12.00;6.10;;;23.00;53.10;;;;;;5037979;28;20396;-57
2022/07/27 10:20:10;;;;;;;8.38;4.90;;;23.30;53.20;;;;;;5037558;28;20017;-58
2022/07/27 10:22:53;;;;;;;10.20;6.25;;;23.90;60.10;;;;;;5037892;28;20026;-58
2022/07/27 10:25:20;;;;;;;9.38;4.57;;;24.60;56.30;;;;;;5033165;28;20074;-58
2022/07/27 10:28:26;;;;;;;10.48;5.80;;;24.90;51.00;;;;;;5039290;28;20029;-57
2022/07/27 10:31:18;;;;;;;8.30;4.80;;;25.00;46.60;;;;;;4957004;28;20043;-55
2022/07/27 10:33:47;;;;;;;13.52;7.55;;;25.10;47.20;;;;;;4956219;28;20046;-52
2022/07/27 10:36:23;;;;;;;15.30;7.75;;;25.30;52.40;;;;;;5014750;28;20033;-56
2022/07/27 10:38:55;;;;;;;18.08;10.10;;;25.60;51.60;;;;;;5039105;28;20056;-56
2022/07/27 10:41:22;;;;;;;15.98;10.10;;;25.80;52.50;;;;;;5041040;28;20032;-57
2022/07/27 10:43:50;;;;;;;13.80;8.82;;;25.90;48.80;;;;;;5036287;28;20473;-57
2022/07/27 10:46:22;;;;;;;13.02;7.57;;;26.00;45.10;;;;;;5026517;28;20033;-57
2022/07/27 10:48:48;;;;;;;11.63;8.60;;;26.10;50.10;;;;;;5037114;28;20083;-58
2022/07/27 10:51:15;;;;;;;12.32;7.07;;;26.00;49.70;;;;;;5037172;28;20026;-56
2022/07/27 10:53:45;;;;;;;9.90;6.68;;;26.10;49.40;;;;;;5037569;28;20030;-57
2022/07/27 10:56:11;;;;;;;10.25;5.88;;;26.40;48.70;;;;;;5033491;28;20021;-56
2022/07/27 10:58:37;;;;;;;13.00;7.97;;;26.20;43.10;;;;;;5037486;28;20112;-58
2022/07/27 11:01:07;;;;;;;10.57;5.40;;;26.00;44.30;;;;;;5036480;28;20053;-57
2022/07/27 11:03:38;;;;;;;11.38;4.43;;;25.60;45.40;;;;;;5036001;28;20112;-58
2022/07/27 11:06:22;;;;;;;9.52;4.50;;;25.50;47.30;;;;;;5036954;28;20091;-57
2022/07/27 11:08:50;;;;;;;10.50;4.68;;;25.80;49.00;;;;;;5034092;28;20030;-59
2022/07/27 11:11:17;;;;;;;7.95;4.50;;;26.00;46.60;;;;;;5040118;28;20472;-56
2022/07/27 11:13:43;;;;;;;8.02;3.17;;;26.30;44.60;;;;;;5035572;28;20806;-57
2022/07/27 11:16:12;;;;;;;8.70;3.92;;;26.40;42.70;;;;;;5035487;28;20041;-58
2022/07/27 11:18:40;;;;;;;9.20;3.72;;;26.40;45.90;;;;;;5037250;28;20053;-49
2022/07/27 11:21:26;;;;;;;7.57;3.40;;;26.20;43.20;;;;;;5035233;28;20074;-51
2022/07/27 11:24:02;;;;;;;7.00;3.47;;;25.80;46.20;;;;;;5033448;28;20116;-54
2022/07/27 11:26:35;;;;;;;7.45;3.50;;;25.50;45.90;;;;;;5037533;28;20030;-57
2022/07/27 11:29:00;;;;;;;6.03;3.20;;;25.80;48.40;;;;;;5038469;28;20036;-56
2022/07/27 11:31:26;;;;;;;8.02;2.90;;;25.90;45.00;;;;;;5038613;28;20029;-58
2022/07/27 11:33:55;;;;;;;6.75;2.88;;;25.70;44.10;;;;;;5032320;28;20025;-58
2022/07/27 11:36:23;;;;;;;8.02;3.25;;;25.90;44.70;;;;;;5038437;28;20100;-58
2022/07/27 11:38:53;;;;;;;7.50;3.42;;;26.20;43.60;;;;;;5042411;28;20025;-58
2022/07/27 11:41:26;;;;;;;8.57;3.38;;;26.60;44.30;;;;;;5036872;28;20036;-58
2022/07/27 11:43:53;;;;;;;9.07;3.10;;;26.60;42.90;;;;;;5036939;28;20033;-58
2022/07/27 11:46:21;;;;;;;8.70;3.28;;;26.40;41.60;;;;;;5036906;28;20031;-58
2022/07/27 11:48:57;;;;;;;8.40;3.08;;;25.70;43.40;;;;;;5046508;28;20084;-58
2022/07/27 11:51:24;;;;;;;6.78;3.00;;;24.90;43.70;;;;;;5036795;28;20087;-57
2022/07/27 11:53:58;;;;;;;7.15;3.33;;;24.50;46.10;;;;;;5045874;28;20037;-58
2022/07/27 11:56:25;;;;;;;5.85;2.90;;;24.20;47.50;;;;;;5038619;28;20026;-58
2022/07/27 11:59:14;;;;;;;6.78;3.60;;;24.20;49.00;;;;;;5055007;28;20441;-57
2022/07/27 12:01:48;;;;;;;6.78;3.25;;;24.20;49.30;;;;;;5043965;28;20025;-58
2022/07/27 12:04:20;;;;;;;9.10;3.65;;;24.50;49.50;;;;;;5036689;28;20029;-58
2022/07/27 12:07:22;;;;;;;6.05;2.97;;;24.90;49.40;;;;;;5042090;28;20049;-58
2022/07/27 12:09:51;;;;;;;5.15;2.88;;;25.40;46.50;;;;;;5032108;28;20099;-57
2022/07/27 12:12:21;;;;;;;6.82;3.05;;;25.60;45.60;;;;;;5037779;28;20029;-58
2022/07/27 12:15:02;;;;;;;6.43;3.10;;;25.40;45.90;;;;;;5057957;28;20114;-58
2022/07/27 12:17:36;;;;;;;9.63;3.50;;;25.00;45.40;;;;;;5052214;28;20146;-58
2022/07/27 12:20:06;;;;;;;6.10;3.28;;;24.60;46.80;;;;;;5059554;28;20018;-58
2022/07/27 12:22:36;;;;;;;5.78;2.95;;;24.20;48.60;;;;;;5048055;28;20033;-57
2022/07/27 12:25:17;;;;;;;7.35;2.88;;;24.40;48.50;;;;;;5040896;28;20022;-59
2022/07/27 12:28:01;;;;;;;5.68;2.72;;;24.70;48.30;;;;;;5040731;28;20026;-58
2022/07/27 12:30:35;;;;;;;6.35;2.83;;;24.90;46.70;;;;;;5040205;28;20135;-58
2022/07/27 12:33:02;;;;;;;6.53;3.03;;;24.80;46.60;;;;;;5051843;28;20025;-58
2022/07/27 12:35:32;;;;;;;6.80;3.05;;;24.80;47.60;;;;;;5027916;28;20516;-57
2022/07/27 12:38:04;;;;;;;8.25;2.90;;;25.10;47.90;;;;;;5038180;28;20464;-59
2022/07/27 12:40:31;;;;;;;8.27;2.75;;;25.40;46.90;;;;;;5038158;28;20056;-58
2022/07/27 12:43:03;;;;;;;5.15;2.25;;;25.90;47.40;;;;;;5035417;28;20232;-58
2022/07/27 12:45:34;;;;;;;6.50;2.47;;;26.20;41.30;;;;;;5035354;28;20038;-59
2022/07/27 12:48:12;;;;;;;6.78;2.92;;;26.00;41.70;;;;;;5032551;28;20029;-58
2022/07/27 12:50:40;;;;;;;5.28;2.38;;;25.60;42.30;;;;;;5040556;28;20072;-58
2022/07/27 12:53:08;;;;;;;4.93;2.25;;;25.20;43.60;;;;;;5039013;28;20044;-56